createdAt,value
2018-07-12T00:01:38.916Z,3.00
2018-07-12T00:04:06.193Z,2.87
2018-07-12T00:06:33.485Z,2.77
2018-07-12T00:09:00.876Z,2.77
2018-07-12T00:11:28.950Z,3.17
2018-07-12T00:13:56.287Z,2.83
2018-07-12T00:16:23.684Z,3.00
2018-07-12T00:18:50.924Z,3.00
2018-07-12T00:21:18.188Z,3.03
2018-07-12T00:23:45.437Z,2.83
2018-07-12T00:26:12.709Z,2.73
2018-07-12T00:28:39.952Z,2.83
2018-07-12T00:31:07.221Z,3.57
2018-07-12T00:33:34.540Z,3.40
2018-07-12T00:36:01.888Z,2.90
2018-07-12T00:38:30.031Z,3.10
2018-07-12T00:40:57.592Z,2.90
2018-07-12T00:43:25.080Z,3.30
2018-07-12T00:45:52.348Z,3.17
2018-07-12T00:48:19.584Z,3.00
2018-07-12T00:50:46.852Z,2.73
2018-07-12T00:53:14.089Z,3.00
2018-07-12T00:55:41.352Z,2.73
2018-07-12T00:58:08.594Z,2.70
2018-07-12T01:00:35.966Z,2.87
2018-07-12T01:03:03.205Z,2.53
2018-07-12T01:05:31.481Z,3.20
2018-07-12T01:07:59.221Z,3.03
2018-07-12T01:10:26.941Z,3.00
2018-07-12T01:12:54.193Z,3.40
2018-07-12T01:15:21.472Z,2.80
2018-07-12T01:17:48.729Z,3.00
2018-07-12T01:20:15.996Z,2.90
2018-07-12T01:22:43.231Z,2.97
2018-07-12T01:25:10.495Z,2.97
2018-07-12T01:27:37.736Z,3.17
2018-07-12T01:30:04.962Z,3.00
2018-07-12T01:32:32.805Z,3.33
2018-07-12T01:35:00.637Z,3.07
2018-07-12T01:37:28.047Z,2.90
2018-07-12T01:39:55.276Z,3.30
2018-07-12T01:42:22.577Z,3.10
2018-07-12T01:44:49.813Z,3.40
2018-07-12T01:47:17.069Z,3.03
2018-07-12T01:49:44.308Z,3.13
2018-07-12T01:52:11.589Z,3.60
2018-07-12T01:54:38.734Z,3.60
2018-07-12T01:57:06.012Z,3.40
2018-07-12T01:59:33.695Z,3.40
2018-07-12T02:02:01.538Z,3.53
2018-07-12T02:04:28.919Z,3.30
2018-07-12T02:06:56.184Z,3.70
2018-07-12T02:09:23.425Z,4.03
2018-07-12T02:11:50.729Z,3.70
2018-07-12T02:14:17.973Z,3.40
2018-07-12T02:16:45.291Z,4.10
2018-07-12T02:19:12.537Z,3.67
2018-07-12T02:21:40.314Z,3.97
2018-07-12T02:24:08.051Z,3.87
2018-07-12T02:26:35.538Z,4.00
2018-07-12T02:29:02.780Z,3.77
2018-07-12T02:31:30.049Z,3.90
2018-07-12T02:33:57.329Z,4.17
2018-07-12T02:36:24.608Z,4.27
2018-07-12T02:38:51.849Z,4.00
2018-07-12T02:41:19.113Z,4.13
2018-07-12T02:43:46.353Z,4.40
2018-07-12T02:46:13.618Z,3.93
2018-07-12T02:48:41.223Z,4.50
2018-07-12T02:51:09.156Z,4.47
2018-07-12T02:53:36.702Z,4.10
2018-07-12T02:56:04.026Z,3.53
2018-07-12T02:58:31.258Z,3.80
2018-07-12T03:00:58.839Z,4.00
2018-07-12T03:03:26.070Z,5.03
2018-07-12T03:05:53.310Z,4.40
2018-07-12T03:08:20.593Z,3.70
2018-07-12T03:10:47.851Z,4.33
2018-07-12T03:13:15.097Z,4.30
2018-07-12T03:15:42.518Z,3.83
2018-07-12T03:18:10.877Z,4.10
2018-07-12T03:20:38.539Z,4.07
2018-07-12T03:23:05.968Z,3.60
2018-07-12T03:25:33.206Z,4.17
2018-07-12T03:28:00.484Z,4.60
2018-07-12T03:30:27.725Z,4.20
2018-07-12T03:32:54.980Z,4.47
2018-07-12T03:35:22.217Z,3.97
2018-07-12T03:37:49.472Z,4.17
2018-07-12T03:40:16.711Z,4.33
2018-07-12T03:42:43.968Z,5.03
2018-07-12T03:45:11.824Z,4.63
2018-07-12T03:47:40.066Z,4.47
2018-07-12T03:50:07.449Z,4.60
2018-07-12T03:52:34.713Z,4.80
2018-07-12T03:55:01.949Z,4.87
2018-07-12T03:57:29.218Z,4.43
2018-07-12T03:59:56.450Z,4.80
2018-07-12T04:02:23.732Z,4.50
2018-07-12T04:04:50.961Z,4.17
2018-07-12T04:07:18.217Z,4.80
2018-07-12T04:09:45.451Z,4.80
2018-07-12T04:12:12.984Z,4.63
2018-07-12T04:14:40.865Z,4.63
2018-07-12T04:17:09.052Z,5.80
2018-07-12T04:19:36.407Z,4.30
2018-07-12T04:22:03.675Z,3.93
2018-07-12T04:24:30.956Z,4.37
2018-07-12T04:26:58.313Z,3.70
2018-07-12T04:29:25.571Z,4.20
2018-07-12T04:31:52.849Z,4.30
2018-07-12T04:34:20.098Z,4.97
2018-07-12T04:36:47.416Z,5.07
2018-07-12T04:39:14.698Z,3.80
2018-07-12T04:41:45.474Z,4.67
2018-07-12T04:44:13.800Z,4.80
2018-07-12T04:46:41.710Z,5.37
2018-07-12T04:49:09.083Z,5.00
2018-07-12T04:51:36.336Z,5.47
2018-07-12T04:54:03.619Z,4.60
2018-07-12T04:56:30.869Z,4.60
2018-07-12T04:58:58.133Z,5.30
2018-07-12T05:01:25.375Z,4.80
2018-07-12T05:03:52.631Z,4.73
2018-07-12T05:06:19.861Z,4.80
2018-07-12T05:08:47.124Z,4.70
2018-07-12T05:11:14.772Z,5.40
2018-07-12T05:13:42.721Z,5.20
2018-07-12T05:16:10.197Z,4.80
2018-07-12T05:18:37.593Z,5.20
2018-07-12T05:21:04.822Z,5.00
2018-07-12T05:23:32.085Z,5.17
2018-07-12T05:25:59.321Z,3.97
2018-07-12T05:28:26.589Z,4.80
2018-07-12T05:30:53.868Z,5.40
2018-07-12T05:33:21.163Z,5.20
2018-07-12T05:35:48.961Z,4.83
2018-07-12T05:38:16.821Z,4.80
2018-07-12T05:40:45.198Z,5.20
2018-07-12T05:43:14.185Z,5.00
2018-07-12T05:45:42.640Z,4.60
2018-07-12T05:48:10.715Z,6.10
2018-07-12T05:50:43.821Z,4.90
2018-07-12T05:53:12.793Z,5.30
2018-07-12T05:55:42.502Z,8.27
2018-07-12T05:58:10.788Z,22.23
2018-07-12T06:00:39.185Z,7.30
2018-07-12T06:03:07.353Z,6.93
2018-07-12T06:05:35.440Z,6.30
2018-07-12T06:08:03.581Z,6.10
2018-07-12T06:10:31.665Z,5.50
2018-07-12T06:12:59.749Z,6.07
2018-07-12T06:15:27.818Z,5.87
2018-07-12T06:17:55.967Z,6.67
2018-07-12T06:20:24.031Z,6.93
2018-07-12T06:22:52.148Z,5.20
2018-07-12T06:25:20.236Z,5.93
2018-07-12T06:27:48.284Z,6.67
2018-07-12T06:30:16.578Z,5.80
2018-07-12T06:32:45.556Z,5.83
2018-07-12T06:35:14.524Z,6.33
2018-07-12T06:37:43.306Z,5.90
2018-07-12T06:40:11.590Z,6.00
2018-07-12T06:42:39.854Z,5.90
2018-07-12T06:45:08.050Z,5.70
2018-07-12T06:47:36.114Z,6.50
2018-07-12T06:50:04.206Z,7.40
2018-07-12T06:52:32.313Z,7.47
2018-07-12T06:55:00.417Z,7.20
2018-07-12T06:57:28.491Z,7.70
2018-07-12T06:59:56.626Z,7.17
2018-07-12T07:02:24.692Z,8.80
2018-07-12T07:04:52.779Z,9.57
2018-07-12T07:07:20.832Z,8.87
2018-07-12T07:09:55.764Z,8.93
2018-07-12T07:12:23.851Z,8.77
2018-07-12T07:14:52.045Z,8.33
2018-07-12T07:17:20.089Z,9.17
2018-07-12T07:19:48.982Z,7.13
2018-07-12T07:22:17.310Z,8.50
2018-07-12T07:24:46.433Z,8.90
2018-07-12T07:27:15.401Z,8.20
2018-07-12T07:29:44.392Z,10.40
2018-07-12T07:32:12.566Z,8.33
2018-07-12T07:34:40.800Z,8.90
2018-07-12T07:37:08.868Z,9.50
2018-07-12T07:39:36.973Z,8.00
2018-07-12T07:42:05.058Z,7.53
2018-07-12T07:44:33.135Z,8.63
2018-07-12T07:47:01.232Z,10.37
2018-07-12T07:49:29.347Z,7.97
2018-07-12T07:51:57.405Z,9.50
2018-07-12T07:54:25.477Z,7.30
2018-07-12T07:56:53.529Z,7.47
2018-07-12T07:59:21.653Z,8.00
2018-07-12T08:01:49.733Z,8.37
2018-07-12T08:04:18.138Z,9.80
2018-07-12T08:06:47.094Z,8.77
2018-07-12T08:09:16.206Z,8.90
2018-07-12T08:11:44.897Z,7.70
2018-07-12T08:14:13.070Z,8.70
2018-07-12T08:16:41.295Z,8.90
2018-07-12T08:19:09.352Z,7.30
2018-07-12T08:21:37.419Z,8.50
2018-07-12T08:24:05.513Z,7.87
2018-07-12T08:26:33.621Z,7.80
2018-07-12T08:29:01.660Z,7.40
2018-07-12T08:31:29.775Z,9.07
2018-07-12T08:33:57.865Z,8.47
2018-07-12T08:36:25.951Z,6.50
2018-07-12T08:38:54.012Z,8.47
2018-07-12T08:41:22.129Z,8.10
2018-07-12T08:43:50.549Z,8.63
2018-07-12T08:46:19.059Z,6.97
2018-07-12T08:48:47.998Z,8.70
2018-07-12T08:51:17.014Z,6.90
2018-07-12T08:53:45.794Z,8.07
2018-07-12T08:56:14.075Z,6.07
2018-07-12T08:58:42.300Z,7.07
2018-07-12T09:01:10.391Z,6.50
2018-07-12T09:03:38.446Z,7.03
2018-07-12T09:06:06.649Z,7.20
2018-07-12T09:08:34.701Z,7.20
2018-07-12T09:11:02.768Z,6.80
2018-07-12T09:13:30.922Z,6.73
2018-07-12T09:15:59.055Z,6.23
2018-07-12T09:18:27.096Z,6.70
2018-07-12T09:20:55.189Z,6.43
2018-07-12T09:23:23.260Z,6.37
2018-07-12T09:25:51.466Z,7.27
2018-07-12T09:28:19.517Z,7.37
2018-07-12T09:30:47.647Z,7.37
2018-07-12T09:33:15.681Z,7.87
2018-07-12T09:35:43.760Z,8.10
2018-07-12T09:38:17.276Z,7.87
2018-07-12T09:40:45.383Z,7.10
2018-07-12T09:43:13.449Z,6.80
2018-07-12T09:45:41.637Z,7.53
2018-07-12T09:48:10.303Z,7.13
2018-07-12T09:50:39.238Z,6.53
2018-07-12T09:53:08.019Z,5.53
2018-07-12T09:55:36.209Z,5.50
2018-07-12T09:58:11.056Z,5.97
2018-07-12T10:00:44.982Z,4.23
2018-07-12T10:03:20.957Z,4.70
2018-07-12T10:05:54.300Z,4.87
2018-07-12T10:08:27.871Z,4.77
2018-07-12T10:11:01.349Z,3.70
2018-07-12T10:13:34.845Z,4.67
2018-07-12T10:16:04.405Z,4.50
2018-07-12T10:18:32.926Z,4.80
2018-07-12T10:21:01.130Z,5.17
2018-07-12T10:23:29.186Z,5.13
2018-07-12T10:25:57.927Z,4.13
2018-07-12T10:28:25.993Z,4.37
2018-07-12T10:30:54.052Z,4.37
2018-07-12T10:33:22.169Z,3.70
2018-07-12T10:35:50.218Z,3.60
2018-07-12T10:38:18.467Z,3.00
2018-07-12T10:40:46.641Z,4.27
2018-07-12T10:43:14.870Z,4.87
2018-07-12T10:45:43.047Z,4.00
2018-07-12T10:48:11.969Z,3.50
2018-07-12T10:50:40.912Z,3.47
2018-07-12T10:53:09.884Z,3.50
2018-07-12T10:55:38.668Z,3.37
2018-07-12T10:58:06.950Z,3.30
2018-07-12T11:00:35.165Z,2.97
2018-07-12T11:03:03.246Z,2.70
2018-07-12T11:05:31.324Z,4.13
2018-07-12T11:07:59.383Z,2.53
2018-07-12T11:10:27.555Z,3.47
2018-07-12T11:13:00.984Z,3.00
2018-07-12T11:15:29.087Z,3.50
2018-07-12T11:17:57.155Z,3.40
2018-07-12T11:20:25.261Z,3.40
2018-07-12T11:22:53.505Z,2.90
2018-07-12T11:25:21.588Z,3.73
2018-07-12T11:27:49.636Z,3.47
2018-07-12T11:30:17.732Z,3.30
2018-07-12T11:32:45.808Z,3.53
2018-07-12T11:35:13.887Z,3.70
2018-07-12T11:37:42.753Z,2.90
2018-07-12T11:40:11.526Z,3.33
2018-07-12T11:42:40.637Z,3.47
2018-07-12T11:45:09.424Z,2.13
2018-07-12T11:47:37.708Z,3.30
2018-07-12T11:50:06.062Z,2.63
2018-07-12T11:52:34.195Z,2.80
2018-07-12T11:55:02.266Z,2.80
2018-07-12T11:57:30.308Z,4.20
2018-07-12T11:59:58.376Z,3.80
2018-07-12T12:02:26.443Z,2.00
2018-07-12T12:04:54.584Z,3.03
2018-07-12T12:07:22.636Z,2.53
2018-07-12T12:09:50.789Z,2.70
2018-07-12T12:12:18.900Z,3.30
2018-07-12T12:14:46.985Z,4.00
2018-07-12T12:17:15.046Z,3.15
2018-07-12T12:19:43.293Z,2.60
2018-07-12T12:22:12.371Z,3.30
2018-07-12T12:24:41.340Z,3.00
2018-07-12T12:27:10.028Z,2.60
2018-07-12T12:29:38.209Z,3.50
2018-07-12T12:32:06.456Z,2.83
2018-07-12T12:34:34.566Z,3.10
2018-07-12T12:37:02.630Z,3.00
2018-07-12T12:39:30.700Z,2.83
2018-07-12T12:41:58.885Z,3.10
2018-07-12T12:44:26.865Z,3.37
2018-07-12T12:46:54.975Z,3.10
2018-07-12T12:49:23.021Z,2.87
2018-07-12T12:51:51.091Z,2.70
2018-07-12T12:54:19.133Z,2.73
2018-07-12T12:56:47.223Z,2.67
2018-07-12T12:59:15.283Z,3.10
2018-07-12T13:01:43.963Z,2.73
2018-07-12T13:04:12.773Z,2.23
2018-07-12T13:06:41.874Z,2.03
2018-07-12T13:09:10.524Z,2.33
2018-07-12T13:11:38.763Z,2.90
2018-07-12T13:14:06.915Z,2.40
2018-07-12T13:16:35.006Z,2.03
2018-07-12T13:19:03.057Z,2.90
2018-07-12T13:21:31.125Z,2.53
2018-07-12T13:23:59.208Z,2.47
2018-07-12T13:26:27.266Z,2.20
2018-07-12T13:28:55.307Z,2.70
2018-07-12T13:31:23.430Z,2.37
2018-07-12T13:33:51.520Z,3.17
2018-07-12T13:36:19.776Z,2.77
2018-07-12T13:38:47.884Z,2.67
2018-07-12T13:41:15.984Z,2.40
2018-07-12T13:43:44.440Z,2.70
2018-07-12T13:46:13.277Z,2.70
2018-07-12T13:48:42.238Z,2.47
2018-07-12T13:51:11.130Z,2.57
2018-07-12T13:53:39.338Z,2.90
2018-07-12T13:56:07.518Z,2.93
2018-07-12T13:58:35.632Z,2.17
2018-07-12T14:01:03.689Z,2.50
2018-07-12T14:03:31.782Z,2.20
2018-07-12T14:05:59.887Z,2.07
2018-07-12T14:08:27.979Z,2.47
2018-07-12T14:10:56.020Z,2.83
2018-07-12T14:13:24.106Z,1.80
2018-07-12T14:15:52.165Z,2.50
2018-07-12T14:18:20.269Z,1.90
2018-07-12T14:20:48.306Z,2.70
2018-07-12T14:23:16.369Z,3.13
2018-07-12T14:25:45.476Z,3.13
2018-07-12T14:28:14.445Z,2.57
2018-07-12T14:30:43.545Z,2.53
2018-07-12T14:33:12.446Z,2.40
2018-07-12T14:35:40.625Z,3.00
2018-07-12T14:38:08.818Z,2.67
2018-07-12T14:40:37.006Z,2.33
2018-07-12T14:43:05.060Z,2.60
2018-07-12T14:45:33.135Z,2.67
2018-07-12T14:48:01.247Z,2.70
2018-07-12T14:50:29.337Z,2.20
2018-07-12T14:52:57.445Z,2.90
2018-07-12T14:55:25.560Z,2.43
2018-07-12T14:57:53.682Z,2.40
2018-07-12T15:00:22.026Z,2.20
2018-07-12T15:02:50.083Z,2.37
2018-07-12T15:05:18.194Z,2.57
2018-07-12T15:07:46.374Z,2.07
2018-07-12T15:10:15.290Z,2.40
2018-07-12T15:12:44.254Z,1.90
2018-07-12T15:15:13.050Z,2.50
2018-07-12T15:17:41.324Z,2.70
2018-07-12T15:20:09.575Z,2.27
2018-07-12T15:22:37.625Z,2.87
2018-07-12T15:25:05.741Z,2.50
2018-07-12T15:27:33.806Z,2.20
2018-07-12T15:30:01.929Z,2.43
2018-07-12T15:32:30.041Z,2.40
2018-07-12T15:34:58.130Z,2.67
2018-07-12T15:37:26.169Z,3.00
2018-07-12T15:39:54.261Z,2.70
2018-07-12T15:42:22.342Z,2.63
2018-07-12T15:44:50.445Z,2.70
2018-07-12T15:47:18.619Z,3.50
2018-07-12T15:49:47.014Z,2.27
2018-07-12T15:52:16.068Z,3.20
2018-07-12T15:54:45.169Z,2.47
2018-07-12T15:57:13.957Z,2.53
2018-07-12T15:59:42.345Z,2.90
2018-07-12T16:02:10.703Z,2.50
2018-07-12T16:04:38.834Z,3.10
2018-07-12T16:07:06.979Z,2.40
2018-07-12T16:09:35.033Z,3.00
2018-07-12T16:12:03.118Z,2.60
2018-07-12T16:14:31.262Z,2.37
2018-07-12T16:16:59.429Z,3.07
2018-07-12T16:19:27.480Z,2.27
2018-07-12T16:21:55.547Z,2.67
2018-07-12T16:24:23.599Z,2.37
2018-07-12T16:26:51.697Z,2.17
2018-07-12T16:29:19.764Z,3.20
2018-07-12T16:31:48.190Z,2.80
2018-07-12T16:34:17.301Z,2.87
2018-07-12T16:36:46.273Z,2.50
2018-07-12T16:39:14.962Z,3.10
2018-07-12T16:41:43.184Z,3.37
2018-07-12T16:44:11.719Z,2.80
2018-07-12T16:46:39.787Z,2.60
2018-07-12T16:49:07.922Z,2.30
2018-07-12T16:51:37.076Z,3.20
2018-07-12T16:54:05.149Z,2.67
2018-07-12T16:56:33.240Z,3.43
2018-07-12T16:59:01.307Z,2.80
2018-07-12T17:01:29.536Z,2.80
2018-07-12T17:03:57.580Z,3.10
2018-07-12T17:06:25.668Z,2.57
2018-07-12T17:08:53.733Z,3.20
2018-07-12T17:11:21.982Z,2.60
2018-07-12T17:13:50.282Z,3.67
2018-07-12T17:16:18.886Z,2.97
2018-07-12T17:18:47.937Z,4.60
2018-07-12T17:21:16.760Z,2.23
2018-07-12T17:23:44.926Z,3.30
2018-07-12T17:26:13.111Z,2.60
2018-07-12T17:28:41.153Z,2.73
2018-07-12T17:31:09.206Z,2.90
2018-07-12T17:33:37.434Z,2.90
2018-07-12T17:36:05.457Z,3.00
2018-07-12T17:38:34.102Z,3.20
2018-07-12T17:41:02.194Z,3.07
2018-07-12T17:43:30.287Z,2.50
2018-07-12T17:45:58.343Z,2.77
2018-07-12T17:48:26.524Z,2.70
2018-07-12T17:50:54.690Z,2.70
2018-07-12T17:53:22.800Z,3.30
2018-07-12T17:55:51.054Z,2.47
2018-07-12T17:58:19.807Z,3.00
2018-07-12T18:00:48.745Z,2.80
2018-07-12T18:03:17.418Z,4.67
2018-07-12T18:05:45.669Z,2.60
2018-07-12T18:08:13.953Z,2.50
2018-07-12T18:10:42.143Z,2.70
2018-07-12T18:13:10.269Z,2.83
2018-07-12T18:15:38.321Z,2.50
2018-07-12T18:18:06.547Z,3.00
2018-07-12T18:20:34.740Z,2.80
2018-07-12T18:23:02.925Z,3.00
2018-07-12T18:25:30.982Z,2.90
2018-07-12T18:27:59.104Z,3.10
2018-07-12T18:30:27.203Z,2.60
2018-07-12T18:32:55.314Z,2.70
2018-07-12T18:35:23.487Z,2.30
2018-07-12T18:37:51.875Z,2.67
2018-07-12T18:40:20.897Z,2.60
2018-07-12T18:42:50.518Z,2.50
2018-07-12T18:45:19.467Z,2.67
2018-07-12T18:47:48.360Z,2.57
2018-07-12T18:50:16.941Z,2.37
2018-07-12T18:52:45.321Z,2.77
2018-07-12T18:55:14.512Z,2.87
2018-07-12T18:57:42.617Z,2.20
2018-07-12T19:00:10.716Z,4.90
2018-07-12T19:02:38.904Z,2.60
2018-07-12T19:05:07.119Z,2.03
2018-07-12T19:07:35.361Z,2.60
2018-07-12T19:10:03.789Z,2.52
2018-07-12T19:12:31.839Z,2.53
2018-07-12T19:14:59.975Z,2.53
2018-07-12T19:17:28.046Z,2.90
2018-07-12T19:19:56.150Z,2.77
2018-07-12T19:22:24.210Z,2.27
2018-07-12T19:24:52.754Z,2.40
2018-07-12T19:27:21.791Z,3.20
2018-07-12T19:29:50.701Z,2.70
2018-07-12T19:32:21.237Z,2.90
2018-07-12T19:34:50.294Z,3.00
2018-07-12T19:37:18.521Z,2.70
2018-07-12T19:39:46.757Z,2.23
2018-07-12T19:42:15.243Z,2.30
2018-07-12T19:44:43.440Z,2.90
2018-07-12T19:47:11.675Z,2.80
2018-07-12T19:49:39.784Z,2.60
2018-07-12T19:52:07.853Z,2.60
2018-07-12T19:54:35.947Z,7.60
2018-07-12T19:57:04.036Z,3.60
2018-07-12T19:59:32.198Z,3.20
2018-07-12T20:02:00.297Z,3.13
2018-07-12T20:04:28.399Z,2.60
2018-07-12T20:06:56.445Z,2.70
2018-07-12T20:09:24.672Z,2.70
2018-07-12T20:11:53.598Z,2.77
2018-07-12T20:14:22.699Z,3.20
2018-07-12T20:16:51.908Z,3.53
2018-07-12T20:19:20.964Z,2.70
2018-07-12T20:21:49.072Z,3.80
2018-07-12T20:24:17.378Z,3.40
2018-07-12T20:26:45.437Z,3.00
2018-07-12T20:29:13.529Z,3.03
2018-07-12T20:31:41.582Z,3.67
2018-07-12T20:34:09.674Z,3.53
2018-07-12T20:36:37.770Z,3.33
2018-07-12T20:39:06.639Z,3.33
2018-07-12T20:41:35.020Z,2.90
2018-07-12T20:44:03.133Z,3.67
2018-07-12T20:46:31.329Z,3.20
2018-07-12T20:48:59.379Z,3.60
2018-07-12T20:51:27.459Z,3.30
2018-07-12T20:53:55.672Z,3.50
2018-07-12T20:56:26.509Z,3.20
2018-07-12T20:58:55.144Z,3.37
2018-07-12T21:01:24.266Z,3.73
2018-07-12T21:03:53.227Z,3.47
2018-07-12T21:06:21.907Z,3.60
2018-07-12T21:08:50.153Z,3.30
2018-07-12T21:11:18.322Z,3.70
2018-07-12T21:13:46.416Z,4.10
2018-07-12T21:16:14.521Z,4.77
2018-07-12T21:18:42.579Z,4.20
2018-07-12T21:21:10.656Z,4.70
2018-07-12T21:23:38.824Z,4.83
2018-07-12T21:26:06.924Z,6.80
2018-07-12T21:28:35.026Z,5.60
2018-07-12T21:31:03.149Z,6.17
2018-07-12T21:33:31.340Z,5.30
2018-07-12T21:35:59.344Z,4.90
2018-07-12T21:38:27.505Z,5.77
2018-07-12T21:40:56.118Z,5.77
2018-07-12T21:43:25.430Z,5.33
2018-07-12T21:45:55.393Z,6.60
2018-07-12T21:48:24.262Z,5.33
2018-07-12T21:50:53.047Z,5.07
2018-07-12T21:53:21.265Z,6.33
2018-07-12T21:55:49.465Z,5.23
2018-07-12T21:58:17.531Z,5.80
2018-07-12T22:00:45.657Z,4.50
2018-07-12T22:03:13.738Z,5.33
2018-07-12T22:05:41.896Z,5.30
2018-07-12T22:08:27.628Z,4.87
2018-07-12T22:11:04.690Z,5.40
2018-07-12T22:13:33.970Z,5.57
2018-07-12T22:16:02.126Z,5.83
2018-07-12T22:18:30.258Z,5.17
2018-07-12T22:20:58.386Z,5.63
2018-07-12T22:23:27.045Z,6.03
2018-07-12T22:25:56.392Z,5.40
2018-07-12T22:28:25.451Z,4.70
2018-07-12T22:30:54.350Z,5.30
2018-07-12T22:33:22.545Z,4.90
2018-07-12T22:35:50.805Z,5.53
2018-07-12T22:38:18.879Z,5.80
2018-07-12T22:40:46.991Z,5.97
2018-07-12T22:43:15.103Z,6.10
2018-07-12T22:45:43.262Z,5.50
2018-07-12T22:48:11.360Z,6.23
2018-07-12T22:50:39.448Z,5.57
2018-07-12T22:53:07.582Z,6.30
2018-07-12T22:55:35.675Z,5.47
2018-07-12T22:58:03.861Z,4.97
2018-07-12T23:00:31.926Z,5.40
2018-07-12T23:03:00.053Z,5.00
2018-07-12T23:05:28.621Z,4.93
2018-07-12T23:07:57.706Z,4.97
2018-07-12T23:10:26.670Z,4.73
2018-07-12T23:12:55.359Z,5.00
2018-07-12T23:15:23.590Z,6.00
2018-07-12T23:17:51.797Z,5.33
2018-07-12T23:20:19.859Z,4.70
2018-07-12T23:22:47.965Z,4.57
2018-07-12T23:25:16.067Z,5.17
2018-07-12T23:27:44.294Z,5.07
2018-07-12T23:30:12.365Z,4.83
2018-07-12T23:32:40.501Z,5.50
2018-07-12T23:35:08.561Z,5.60
2018-07-12T23:37:36.659Z,5.37
2018-07-12T23:40:04.765Z,5.33
2018-07-12T23:42:32.858Z,5.50
2018-07-12T23:45:00.921Z,5.10
2018-07-12T23:47:29.651Z,5.40
2018-07-12T23:49:58.752Z,5.03
2018-07-12T23:52:27.479Z,4.47
2018-07-12T23:54:55.659Z,4.70
2018-07-12T23:57:23.886Z,4.90
2018-07-12T23:59:51.932Z,5.13
